Time;durP1;ratioP1;P1;durP2;ratioP2;P2;SDS_P1;SDS_P2;PMS_P1;PMS_P2;Temp;Humidity;BMP_temperature;BMP_pressure;BME280_temperature;BME280_humidity;BME280_pressure;Samples;Min_cycle;Max_cycle;Signal;HPM_P1;HPM_P2
2023/05/08 07:52:20;;;;;;;17.63;15.45;;;14.50;99.90;;;;;;5158320;27;20106;-62
2023/05/08 07:54:46;;;;;;;15.93;14.23;;;14.60;99.90;;;;;;5124423;27;20066;-62
2023/05/08 07:57:15;;;;;;;17.42;15.65;;;14.60;99.90;;;;;;5131649;27;20099;-63
2023/05/08 07:59:40;;;;;;;17.25;15.43;;;14.60;99.90;;;;;;5145158;27;20043;-66
2023/05/08 08:02:06;;;;;;;17.73;15.60;;;14.70;99.90;;;;;;5136729;27;20043;-64
2023/05/08 08:04:32;;;;;;;16.77;15.07;;;14.80;99.90;;;;;;5142827;27;20516;-64
2023/05/08 08:06:58;;;;;;;17.33;15.57;;;14.80;99.90;;;;;;5138601;27;20042;-63
2023/05/08 08:09:23;;;;;;;17.08;15.27;;;14.80;99.90;;;;;;5139894;27;20069;-65
2023/05/08 08:11:49;;;;;;;16.92;15.20;;;14.90;99.90;;;;;;5139144;27;20037;-63
2023/05/08 08:14:15;;;;;;;17.50;14.93;;;15.00;99.90;;;;;;5116786;27;20405;-62
2023/05/08 08:16:41;;;;;;;17.50;15.80;;;15.00;99.90;;;;;;5139202;27;20042;-58
2023/05/08 08:19:07;;;;;;;17.80;15.05;;;15.00;99.90;;;;;;5134543;27;20402;-65
2023/05/08 08:21:33;;;;;;;17.23;15.52;;;15.10;99.90;;;;;;5120390;27;20047;-63
2023/05/08 08:23:59;;;;;;;16.80;15.10;;;15.20;99.90;;;;;;5124779;27;20039;-63
2023/05/08 08:26:27;;;;;;;18.33;16.42;;;15.40;99.90;;;;;;5140249;27;20545;-64
2023/05/08 08:28:53;;;;;;;17.35;15.65;;;15.50;99.90;;;;;;5138607;27;20027;-64
2023/05/08 08:31:19;;;;;;;19.13;17.25;;;15.50;99.90;;;;;;5134950;27;20034;-64
2023/05/08 08:33:45;;;;;;;17.05;15.25;;;15.60;99.90;;;;;;5136635;27;20034;-64
2023/05/08 08:36:14;;;;;;;18.75;15.93;;;15.70;99.90;;;;;;5136063;27;20511;-62
2023/05/08 08:38:41;;;;;;;19.13;17.13;;;15.80;99.90;;;;;;5138467;27;20654;-62
2023/05/08 08:41:07;;;;;;;17.15;15.35;;;15.90;99.90;;;;;;5138416;27;20031;-63
2023/05/08 08:43:33;;;;;;;17.58;15.77;;;16.00;99.90;;;;;;5117234;27;20034;-63
2023/05/08 08:46:08;;;;;;;17.60;15.80;;;16.10;99.90;;;;;;5136430;27;20126;-62
2023/05/08 08:48:36;;;;;;;16.80;14.95;;;16.20;99.90;;;;;;5130867;27;20043;-64
2023/05/08 08:51:12;;;;;;;17.33;15.52;;;16.30;99.90;;;;;;5134424;27;20067;-63
2023/05/08 08:53:43;;;;;;;16.25;14.65;;;16.50;99.90;;;;;;5134265;27;20034;-65
2023/05/08 08:56:10;;;;;;;17.45;15.65;;;16.60;99.90;;;;;;5140539;27;20078;-63
2023/05/08 08:58:45;;;;;;;17.60;15.80;;;16.80;99.90;;;;;;5132368;27;20044;-65
2023/05/08 09:01:16;;;;;;;17.75;15.85;;;16.90;99.90;;;;;;5135697;27;20498;-67
2023/05/08 09:03:42;;;;;;;17.90;16.20;;;17.00;99.90;;;;;;5125010;27;20043;-64
2023/05/08 09:06:09;;;;;;;18.40;16.60;;;17.20;99.90;;;;;;5121619;27;20043;-64
2023/05/08 09:08:36;;;;;;;16.98;15.18;;;17.30;99.90;;;;;;5121587;27;20042;-64
2023/05/08 09:11:04;;;;;;;17.35;15.65;;;17.40;99.90;;;;;;5127335;27;20053;-63
2023/05/08 09:13:30;;;;;;;18.70;16.88;;;17.50;99.90;;;;;;5123541;27;20476;-64
2023/05/08 09:15:57;;;;;;;19.63;17.38;;;17.60;99.90;;;;;;5124791;27;20038;-64
2023/05/08 09:18:23;;;;;;;19.38;17.38;;;17.70;99.90;;;;;;5128253;27;20042;-63
2023/05/08 09:20:50;;;;;;;19.40;17.38;;;17.80;99.90;;;;;;5125794;27;20039;-63
2023/05/08 09:23:16;;;;;;;17.45;15.55;;;17.80;99.90;;;;;;5121648;27;20043;-61
2023/05/08 09:25:47;;;;;;;19.27;17.48;;;17.80;99.90;;;;;;5129382;27;20050;-60
2023/05/08 09:28:18;;;;;;;19.80;17.85;;;17.90;99.90;;;;;;5125040;27;20043;-58
2023/05/08 09:30:55;;;;;;;18.88;16.83;;;18.00;99.90;;;;;;5120251;27;20528;-59
2023/05/08 09:33:30;;;;;;;19.40;17.40;;;18.20;99.90;;;;;;5102538;27;20126;-58
2023/05/08 09:35:56;;;;;;;19.13;16.58;;;18.20;99.90;;;;;;5122037;27;20057;-58
2023/05/08 09:38:39;;;;;;;20.08;17.73;;;18.30;99.90;;;;;;5124582;27;20066;-57
2023/05/08 09:41:10;;;;;;;19.98;17.27;;;18.40;99.90;;;;;;5124334;27;20103;-57
2023/05/08 09:43:36;;;;;;;21.58;17.88;;;18.50;99.90;;;;;;5129717;27;20118;-61
2023/05/08 09:46:21;;;;;;;19.88;17.88;;;18.70;99.90;;;;;;5120276;27;20046;-61
2023/05/08 09:48:52;;;;;;;19.77;17.70;;;18.90;99.90;;;;;;5121013;27;20095;-61
2023/05/08 09:51:18;;;;;;;22.02;19.85;;;19.00;99.90;;;;;;5121450;27;20144;-61
2023/05/08 09:53:44;;;;;;;21.42;19.42;;;19.20;99.90;;;;;;5125188;27;20047;-61
2023/05/08 09:56:10;;;;;;;23.25;19.75;;;19.20;99.90;;;;;;5118639;27;20109;-61
2023/05/08 09:58:40;;;;;;;21.08;18.88;;;19.30;99.90;;;;;;5117736;27;20033;-68
2023/05/08 10:01:07;;;;;;;21.77;19.67;;;19.50;99.90;;;;;;5116862;27;20108;-62
2023/05/08 10:03:49;;;;;;;21.73;19.63;;;19.50;99.90;;;;;;5121636;27;20058;-59
2023/05/08 10:06:15;;;;;;;21.73;19.52;;;19.60;99.90;;;;;;5122408;27;20171;-62
2023/05/08 10:08:41;;;;;;;22.73;20.42;;;19.80;99.90;;;;;;5121444;27;20039;-63
2023/05/08 10:11:17;;;;;;;23.42;21.10;;;19.90;99.90;;;;;;5124718;27;20431;-64
2023/05/08 10:13:44;;;;;;;22.17;19.85;;;20.00;99.90;;;;;;5119305;27;20130;-61
2023/05/08 10:16:16;;;;;;;19.85;17.92;;;19.90;99.90;;;;;;5119896;27;20047;-62
2023/05/08 10:18:49;;;;;;;20.90;18.77;;;20.00;99.90;;;;;;5107105;27;20102;-62
2023/05/08 10:21:16;;;;;;;21.98;19.88;;;20.10;99.90;;;;;;5121486;27;20061;-64
2023/05/08 10:23:43;;;;;;;21.15;19.05;;;20.30;99.90;;;;;;5120422;27;20550;-61
2023/05/08 10:26:15;;;;;;;22.23;19.40;;;20.30;99.90;;;;;;5127686;27;20053;-61
2023/05/08 10:28:54;;;;;;;21.77;19.65;;;20.40;99.90;;;;;;5121501;27;20513;-62
2023/05/08 10:31:23;;;;;;;22.45;20.15;;;20.50;99.90;;;;;;5125502;27;20039;-62
2023/05/08 10:33:53;;;;;;;20.40;18.20;;;20.50;99.90;;;;;;5119127;27;20065;-62
2023/05/08 10:36:23;;;;;;;22.02;19.67;;;20.70;99.90;;;;;;5124146;27;20100;-61
2023/05/08 10:38:50;;;;;;;21.50;19.50;;;20.70;99.90;;;;;;5124199;27;20043;-61
2023/05/08 10:41:17;;;;;;;21.88;19.70;;;20.90;99.90;;;;;;5113443;27;20049;-62
2023/05/08 10:43:43;;;;;;;22.48;20.13;;;21.00;99.90;;;;;;5116113;27;20047;-62
2023/05/08 10:46:28;;;;;;;20.95;18.85;;;21.00;99.90;;;;;;5127408;27;20154;-62
2023/05/08 10:49:03;;;;;;;20.10;18.20;;;20.90;99.90;;;;;;5119834;27;20055;-62
2023/05/08 10:51:52;;;;;;;21.25;19.05;;;21.10;99.90;;;;;;5141810;27;20039;-62
2023/05/08 10:54:35;;;;;;;19.73;17.85;;;21.30;99.90;;;;;;5125455;27;20035;-62
2023/05/08 10:57:11;;;;;;;19.52;17.63;;;21.40;99.90;;;;;;5122559;27;20051;-63
2023/05/08 10:59:37;;;;;;;20.88;18.80;;;21.60;99.90;;;;;;5125273;27;20701;-62
2023/05/08 11:02:06;;;;;;;19.73;17.83;;;21.70;99.90;;;;;;5122651;27;20042;-62
2023/05/08 11:04:33;;;;;;;18.95;17.15;;;21.60;99.90;;;;;;5123577;27;20129;-63
2023/05/08 11:06:59;;;;;;;21.42;19.33;;;21.60;99.90;;;;;;5126396;27;20483;-62
2023/05/08 11:09:41;;;;;;;21.48;19.38;;;21.80;99.90;;;;;;5108151;27;20122;-64
2023/05/08 11:12:28;;;;;;;19.83;17.92;;;21.90;99.90;;;;;;5123864;27;20050;-64
2023/05/08 11:15:08;;;;;;;21.77;19.63;;;21.90;99.90;;;;;;5123599;27;20077;-64
2023/05/08 11:17:34;;;;;;;20.80;18.63;;;21.90;99.90;;;;;;5121015;27;20124;-63
2023/05/08 11:20:02;;;;;;;19.25;17.35;;;22.00;99.90;;;;;;5123978;27;20039;-64
2023/05/08 11:22:35;;;;;;;21.70;19.40;;;22.20;99.90;;;;;;5122921;27;20100;-63
2023/05/08 11:25:11;;;;;;;21.90;19.65;;;22.20;99.90;;;;;;5122370;27;20050;-64
2023/05/08 11:27:49;;;;;;;21.92;19.73;;;22.20;99.90;;;;;;5123743;27;20589;-63
2023/05/08 11:30:20;;;;;;;19.90;18.00;;;22.10;99.90;;;;;;5125135;27;20046;-64
2023/05/08 11:33:09;;;;;;;19.50;17.55;;;22.30;99.90;;;;;;5102104;28;20704;-64
2023/05/08 11:35:47;;;;;;;19.35;17.50;;;22.30;99.90;;;;;;5104156;27;20065;-63
2023/05/08 11:38:27;;;;;;;19.50;17.60;;;22.30;99.90;;;;;;5119833;27;20088;-64
2023/05/08 11:40:59;;;;;;;21.13;16.33;;;22.30;99.90;;;;;;5121967;27;20113;-63
2023/05/08 11:43:40;;;;;;;19.85;16.48;;;22.40;99.90;;;;;;5122154;27;20486;-64
2023/05/08 11:46:18;;;;;;;18.15;16.30;;;22.30;99.90;;;;;;5119715;27;20042;-63
2023/05/08 11:48:44;;;;;;;18.33;16.13;;;22.30;99.90;;;;;;5121571;27;20039;-63
2023/05/08 11:51:12;;;;;;;16.30;14.63;;;22.20;99.90;;;;;;5104841;28;20043;-63
2023/05/08 11:53:38;;;;;;;19.67;17.60;;;22.20;99.90;;;;;;5120341;27;20043;-63
2023/05/08 11:56:04;;;;;;;20.45;17.98;;;22.30;99.90;;;;;;5110382;28;20084;-63
2023/05/08 11:58:30;;;;;;;21.00;18.90;;;22.40;99.90;;;;;;5116030;27;20032;-61
2023/05/08 12:00:56;;;;;;;19.83;18.02;;;22.30;99.90;;;;;;5123534;27;20087;-62
2023/05/08 12:03:26;;;;;;;21.83;19.02;;;22.30;99.90;;;;;;5120805;27;20036;-63
2023/05/08 12:05:56;;;;;;;21.38;19.30;;;22.30;99.90;;;;;;5121312;27;20109;-61
2023/05/08 12:08:22;;;;;;;21.23;19.13;;;22.20;99.90;;;;;;5120765;27;20494;-64
2023/05/08 12:10:52;;;;;;;21.15;18.85;;;22.10;99.90;;;;;;5129870;27;20049;-64
2023/05/08 12:13:26;;;;;;;20.80;18.67;;;22.00;99.90;;;;;;5121698;27;20027;-64
2023/05/08 12:15:54;;;;;;;21.13;19.08;;;22.00;99.90;;;;;;5125851;27;20126;-64
2023/05/08 12:18:21;;;;;;;20.83;18.63;;;22.10;99.90;;;;;;5113984;27;20099;-63
2023/05/08 12:21:00;;;;;;;20.77;18.70;;;22.20;99.90;;;;;;5120413;27;20050;-63
2023/05/08 12:23:28;;;;;;;20.40;18.40;;;22.20;99.90;;;;;;5122817;27;20043;-62
2023/05/08 12:25:57;;;;;;;19.63;17.75;;;22.30;99.90;;;;;;5121810;27;20363;-63
2023/05/08 12:28:23;;;;;;;22.70;18.88;;;22.30;99.90;;;;;;5126093;27;20118;-63
2023/05/08 12:30:49;;;;;;;21.85;19.75;;;22.30;99.90;;;;;;5124661;27;20123;-62
2023/05/08 12:33:15;;;;;;;22.88;20.63;;;22.20;99.90;;;;;;5119967;27;20039;-67
2023/05/08 12:35:41;;;;;;;22.75;20.35;;;22.10;99.90;;;;;;5121234;27;20124;-62
2023/05/08 12:38:08;;;;;;;22.73;20.42;;;22.20;99.90;;;;;;5120007;27;20114;-62
2023/05/08 12:40:44;;;;;;;23.65;21.33;;;22.10;99.90;;;;;;5120921;27;20120;-63
2023/05/08 12:43:11;;;;;;;22.73;20.45;;;22.20;99.90;;;;;;5124311;27;20075;-66
2023/05/08 12:45:39;;;;;;;21.98;19.80;;;22.20;99.90;;;;;;5126494;27;20423;-63
2023/05/08 12:48:13;;;;;;;23.40;21.15;;;22.20;99.90;;;;;;5118279;27;20472;-62
2023/05/08 12:50:41;;;;;;;21.52;19.42;;;22.20;99.90;;;;;;5122118;27;20580;-63
2023/05/08 12:53:18;;;;;;;22.38;20.15;;;22.40;99.90;;;;;;5124382;27;20020;-62
2023/05/08 12:55:53;;;;;;;22.83;20.42;;;22.60;99.90;;;;;;5119302;27;20031;-64
2023/05/08 12:58:23;;;;;;;21.05;19.05;;;22.60;99.90;;;;;;5123350;27;20131;-64
2023/05/08 13:00:51;;;;;;;22.75;20.60;;;22.70;99.90;;;;;;5121746;27;20619;-62
2023/05/08 13:03:28;;;;;;;22.20;20.00;;;22.80;99.90;;;;;;5106224;27;20172;-64
2023/05/08 13:05:56;;;;;;;22.55;20.20;;;22.90;99.90;;;;;;5125460;27;20172;-63
2023/05/08 13:08:36;;;;;;;22.88;20.73;;;23.00;99.90;;;;;;5122051;27;20043;-62
2023/05/08 13:11:04;;;;;;;23.30;20.88;;;23.10;99.90;;;;;;5123833;27;20043;-60
2023/05/08 13:13:34;;;;;;;23.05;19.45;;;23.10;99.90;;;;;;5124942;27;20039;-62
2023/05/08 13:16:05;;;;;;;23.35;21.02;;;23.10;99.90;;;;;;5125443;27;20126;-59
2023/05/08 13:18:30;;;;;;;21.88;19.67;;;23.00;99.90;;;;;;5123633;27;20364;-58
2023/05/08 13:20:56;;;;;;;23.13;20.73;;;23.00;99.90;;;;;;5124851;27;20069;-63
2023/05/08 13:23:23;;;;;;;23.30;20.58;;;22.90;99.90;;;;;;5114605;27;20082;-64
2023/05/08 13:25:49;;;;;;;24.67;22.27;;;22.80;99.90;;;;;;5125156;27;20043;-62
2023/05/08 13:28:15;;;;;;;23.77;21.42;;;22.90;99.90;;;;;;5115502;27;20035;-63
2023/05/08 13:30:40;;;;;;;24.13;21.77;;;23.00;99.90;;;;;;5122092;27;20036;-61
2023/05/08 13:33:06;;;;;;;22.88;20.48;;;23.20;99.90;;;;;;5124825;27;20109;-61
2023/05/08 13:35:33;;;;;;;24.17;21.77;;;23.50;99.90;;;;;;5100313;27;20506;-64
2023/05/08 13:38:04;;;;;;;23.13;20.75;;;23.50;99.90;;;;;;5128926;27;20058;-62
2023/05/08 13:40:30;;;;;;;24.90;22.48;;;23.40;99.90;;;;;;5123427;27;20070;-65
2023/05/08 13:42:56;;;;;;;23.75;21.25;;;23.30;99.90;;;;;;5120477;27;20456;-63
2023/05/08 13:45:22;;;;;;;25.98;23.38;;;23.40;99.90;;;;;;5118466;27;20040;-63
2023/05/08 13:47:49;;;;;;;26.25;23.55;;;23.40;99.90;;;;;;5123584;27;20034;-63
2023/05/08 13:50:17;;;;;;;27.63;24.92;;;23.30;99.90;;;;;;5118703;27;20350;-65
2023/05/08 13:52:42;;;;;;;24.77;22.05;;;23.30;99.90;;;;;;5122565;27;20034;-62
2023/05/08 13:55:11;;;;;;;26.45;23.65;;;23.50;99.90;;;;;;5123477;27;20031;-62
2023/05/08 13:57:37;;;;;;;26.60;23.83;;;23.60;99.90;;;;;;5120923;27;20394;-62
2023/05/08 14:00:04;;;;;;;25.70;23.20;;;23.70;99.90;;;;;;5118519;27;20114;-64
2023/05/08 14:02:30;;;;;;;25.95;23.42;;;23.70;99.90;;;;;;5097765;27;20061;-62
2023/05/08 14:04:56;;;;;;;25.77;23.27;;;23.60;99.90;;;;;;5122379;27;20041;-63
2023/05/08 14:07:21;;;;;;;25.23;22.73;;;23.40;99.90;;;;;;5118778;27;20042;-62
2023/05/08 14:09:47;;;;;;;25.50;23.02;;;23.30;99.90;;;;;;5127894;27;20035;-62
2023/05/08 14:12:14;;;;;;;25.70;22.95;;;23.30;99.90;;;;;;5097236;27;20051;-64
2023/05/08 14:14:39;;;;;;;26.67;24.08;;;23.20;99.90;;;;;;5124377;27;20549;-63
2023/05/08 14:17:06;;;;;;;29.98;26.98;;;23.10;99.90;;;;;;5120351;27;20104;-62
2023/05/08 14:19:32;;;;;;;29.85;26.92;;;22.80;99.90;;;;;;5106643;27;20042;-62
2023/05/08 14:21:58;;;;;;;31.60;28.40;;;22.50;99.90;;;;;;5128404;27;20496;-63
2023/05/08 14:24:24;;;;;;;37.78;33.92;;;22.30;99.90;;;;;;5117613;27;20046;-63
2023/05/08 14:26:50;;;;;;;40.13;36.05;;;22.00;99.90;;;;;;5102981;27;20485;-63
2023/05/08 14:29:17;;;;;;;40.30;36.08;;;21.70;99.90;;;;;;5129784;27;20469;-62
2023/05/08 14:31:43;;;;;;;39.67;35.45;;;21.50;99.90;;;;;;5124759;27;20039;-63
2023/05/08 14:34:09;;;;;;;43.60;39.03;;;21.40;99.90;;;;;;5126936;27;20054;-63
2023/05/08 14:36:35;;;;;;;42.38;37.88;;;21.20;99.90;;;;;;5114392;27;20043;-62
2023/05/08 14:39:01;;;;;;;42.10;37.80;;;21.00;99.90;;;;;;5110940;27;20414;-62
2023/05/08 14:41:28;;;;;;;43.95;39.25;;;20.90;99.90;;;;;;5121660;27;20081;-60
2023/05/08 14:43:55;;;;;;;40.72;36.63;;;20.80;99.90;;;;;;5121853;27;20123;-60
2023/05/08 14:46:20;;;;;;;42.17;37.78;;;20.90;99.90;;;;;;5121046;27;20092;-60
2023/05/08 14:48:46;;;;;;;39.45;35.20;;;20.90;99.90;;;;;;5126684;27;20477;-59
2023/05/08 14:51:12;;;;;;;40.65;36.60;;;21.00;99.90;;;;;;5120701;27;20043;-63
2023/05/08 14:53:39;;;;;;;38.75;34.75;;;21.00;99.90;;;;;;5116215;27;20074;-62
2023/05/08 14:56:05;;;;;;;36.45;32.67;;;21.10;99.90;;;;;;5118823;27;20031;-64
2023/05/08 14:58:30;;;;;;;40.08;35.75;;;21.10;99.90;;;;;;5124168;27;20453;-62
2023/05/08 15:00:56;;;;;;;40.83;36.63;;;21.20;99.90;;;;;;5120360;27;20066;-62
2023/05/08 15:03:22;;;;;;;45.40;40.83;;;21.20;99.90;;;;;;5120172;27;20493;-62
2023/05/08 15:05:47;;;;;;;42.92;38.47;;;21.10;99.90;;;;;;5120749;27;20032;-62
2023/05/08 15:08:13;;;;;;;46.17;41.40;;;21.20;99.90;;;;;;5124889;27;20031;-62
2023/05/08 15:10:39;;;;;;;41.83;37.47;;;21.20;99.90;;;;;;5122500;27;20061;-63
2023/05/08 15:13:04;;;;;;;40.03;35.88;;;21.20;99.90;;;;;;5123034;27;20035;-64
2023/05/08 15:15:30;;;;;;;41.08;36.83;;;21.40;99.90;;;;;;5104531;27;20371;-61
2023/05/08 15:17:56;;;;;;;30.83;27.95;;;21.40;99.90;;;;;;5122464;27;20041;-61
2023/05/08 15:20:22;;;;;;;25.70;23.20;;;21.50;99.90;;;;;;5121697;27;20273;-62
2023/05/08 15:22:48;;;;;;;28.25;25.33;;;21.40;99.90;;;;;;5124250;27;20200;-63
2023/05/08 15:25:13;;;;;;;26.83;24.17;;;21.40;99.90;;;;;;5119016;27;20073;-63
2023/05/08 15:27:40;;;;;;;26.83;24.08;;;21.30;99.90;;;;;;5124679;27;20035;-62
2023/05/08 15:30:07;;;;;;;28.27;25.30;;;21.30;99.90;;;;;;5122059;27;20047;-62
2023/05/08 15:32:33;;;;;;;30.60;27.42;;;21.30;99.90;;;;;;5117844;27;20150;-62
2023/05/08 15:35:00;;;;;;;27.15;24.45;;;21.30;99.90;;;;;;5124150;27;20035;-62
2023/05/08 15:37:26;;;;;;;27.98;25.13;;;21.30;99.90;;;;;;5121634;27;20445;-61
2023/05/08 15:39:51;;;;;;;27.52;24.73;;;21.30;99.90;;;;;;5118276;27;20032;-61
2023/05/08 15:42:17;;;;;;;27.70;24.88;;;21.30;99.90;;;;;;5120313;27;20399;-62
2023/05/08 15:44:43;;;;;;;32.17;28.83;;;21.20;99.90;;;;;;5120311;27;20059;-63
2023/05/08 15:47:08;;;;;;;30.73;27.63;;;21.00;99.90;;;;;;5116775;27;20035;-61
2023/05/08 15:49:34;;;;;;;29.55;26.55;;;21.00;99.90;;;;;;5121182;27;20035;-60
2023/05/08 15:52:00;;;;;;;36.20;32.50;;;20.90;99.90;;;;;;5118418;27;20039;-62
2023/05/08 15:54:26;;;;;;;38.90;34.75;;;20.80;99.90;;;;;;5123316;27;20043;-61
2023/05/08 15:56:51;;;;;;;36.78;33.17;;;20.80;99.90;;;;;;5120992;27;20027;-63
2023/05/08 15:59:17;;;;;;;39.50;35.40;;;20.60;99.90;;;;;;5117858;27;20040;-62
2023/05/08 16:01:45;;;;;;;35.88;32.17;;;20.70;99.90;;;;;;5119546;27;20510;-61
2023/05/08 16:04:11;;;;;;;40.00;35.85;;;20.70;99.90;;;;;;5121530;28;20050;-61
2023/05/08 16:06:37;;;;;;;40.85;36.53;;;20.70;99.90;;;;;;5104265;28;20482;-62
2023/05/08 16:09:03;;;;;;;38.15;34.15;;;20.70;99.90;;;;;;5120682;28;20522;-61
2023/05/08 16:11:30;;;;;;;40.58;36.22;;;20.70;99.90;;;;;;5116543;27;20815;-62
2023/05/08 16:13:57;;;;;;;42.28;37.85;;;20.70;99.90;;;;;;5106853;28;20035;-60
2023/05/08 16:16:24;;;;;;;39.00;34.78;;;20.50;99.90;;;;;;5125908;27;20066;-61
2023/05/08 16:18:50;;;;;;;41.20;36.80;;;20.40;99.90;;;;;;5129101;27;20039;-61
2023/05/08 16:21:15;;;;;;;38.33;34.28;;;20.30;99.90;;;;;;5106046;27;20042;-61
2023/05/08 16:23:41;;;;;;;40.83;36.60;;;20.10;99.90;;;;;;5122059;27;20072;-61
2023/05/08 16:26:07;;;;;;;40.90;35.88;;;20.20;99.90;;;;;;5127603;27;20035;-63
2023/05/08 16:28:33;;;;;;;40.17;35.97;;;20.20;99.90;;;;;;5121672;27;20053;-60
2023/05/08 16:30:58;;;;;;;43.10;38.13;;;20.40;99.90;;;;;;5126603;27;20043;-61
2023/05/08 16:33:24;;;;;;;42.42;37.97;;;20.30;99.90;;;;;;5120976;27;20074;-61
2023/05/08 16:35:50;;;;;;;38.95;34.75;;;20.20;99.90;;;;;;5128654;27;20034;-61
2023/05/08 16:38:15;;;;;;;38.00;33.88;;;20.20;99.90;;;;;;5125645;27;20035;-65
2023/05/08 16:40:41;;;;;;;39.67;35.22;;;20.20;99.90;;;;;;5121814;27;20536;-61
2023/05/08 16:43:07;;;;;;;38.70;34.72;;;20.20;99.90;;;;;;5103355;27;21408;-64
2023/05/08 16:45:34;;;;;;;38.50;34.50;;;20.20;99.90;;;;;;5122976;27;20099;-63
2023/05/08 16:48:01;;;;;;;37.72;33.80;;;20.30;99.90;;;;;;5127560;27;20039;-63
2023/05/08 16:50:26;;;;;;;36.97;33.10;;;20.20;99.90;;;;;;5124401;27;20459;-62
2023/05/08 16:52:52;;;;;;;36.08;32.25;;;20.20;99.90;;;;;;5126866;27;20039;-65
2023/05/08 16:55:18;;;;;;;39.30;35.08;;;20.20;99.90;;;;;;5122238;27;20394;-61
2023/05/08 16:57:44;;;;;;;33.92;30.33;;;20.20;99.90;;;;;;5120756;27;20460;-62
2023/05/08 17:00:10;;;;;;;39.83;34.03;;;20.20;99.90;;;;;;5124531;27;20035;-62
2023/05/08 17:02:37;;;;;;;37.58;31.52;;;20.10;99.90;;;;;;5126108;27;20044;-61
2023/05/08 17:05:03;;;;;;;33.95;30.38;;;20.10;99.90;;;;;;5122380;27;20050;-62
2023/05/08 17:07:29;;;;;;;33.83;29.80;;;20.10;99.90;;;;;;5122876;27;20390;-64
2023/05/08 17:09:58;;;;;;;41.60;37.25;;;20.10;99.90;;;;;;5125703;27;20039;-61
2023/05/08 17:12:24;;;;;;;46.40;39.22;;;20.10;99.90;;;;;;5119298;27;20390;-61
2023/05/08 17:14:49;;;;;;;42.90;38.33;;;20.00;99.90;;;;;;5125417;27;20034;-62
2023/05/08 17:17:15;;;;;;;39.92;35.70;;;20.10;99.90;;;;;;5119689;27;20063;-62
2023/05/08 17:19:42;;;;;;;43.47;38.60;;;20.10;99.90;;;;;;5125509;27;20035;-62
2023/05/08 17:22:08;;;;;;;42.60;38.20;;;20.00;99.90;;;;;;5123632;27;20039;-65
2023/05/08 17:24:36;;;;;;;40.15;35.90;;;20.00;99.90;;;;;;5119649;27;20529;-63
2023/05/08 17:27:05;;;;;;;42.92;38.30;;;20.00;99.90;;;;;;5113972;27;20039;-62
2023/05/08 17:29:34;;;;;;;49.03;43.80;;;20.00;99.90;;;;;;5123754;27;20636;-62
2023/05/08 17:32:00;;;;;;;53.75;46.28;;;19.90;99.90;;;;;;5117176;27;20066;-62
2023/05/08 17:34:26;;;;;;;52.83;46.25;;;19.80;99.90;;;;;;5124306;27;20619;-62
2023/05/08 17:36:51;;;;;;;61.75;50.30;;;19.60;99.90;;;;;;5122384;27;20027;-62
2023/05/08 17:39:19;;;;;;;58.50;49.83;;;19.50;99.90;;;;;;5122080;27;20070;-63
2023/05/08 17:41:49;;;;;;;75.68;53.65;;;19.30;99.90;;;;;;5124933;27;20039;-60
2023/05/08 17:44:18;;;;;;;70.78;53.58;;;19.20;99.90;;;;;;5117704;27;20043;-60
2023/05/08 17:46:46;;;;;;;70.97;53.40;;;19.00;99.90;;;;;;5125808;27;20041;-60
2023/05/08 17:49:13;;;;;;;73.45;53.50;;;18.80;99.90;;;;;;5126374;27;20074;-60
2023/05/08 17:51:40;;;;;;;68.38;50.38;;;18.60;99.90;;;;;;5122591;27;20044;-60
2023/05/08 17:54:06;;;;;;;80.82;56.83;;;18.50;99.90;;;;;;5124195;27;20035;-60
2023/05/08 17:56:32;;;;;;;73.78;52.95;;;18.50;99.90;;;;;;5124065;27;20047;-59
2023/05/08 17:58:57;;;;;;;73.85;51.15;;;18.30;99.90;;;;;;5127446;27;20478;-59
2023/05/08 18:01:24;;;;;;;67.15;46.08;;;18.30;99.90;;;;;;5124489;27;20058;-60
2023/05/08 18:03:53;;;;;;;66.82;45.08;;;18.20;99.90;;;;;;5120650;27;20051;-59
2023/05/08 18:06:24;;;;;;;61.08;41.40;;;18.00;99.90;;;;;;5123738;27;20121;-60
2023/05/08 18:08:50;;;;;;;65.07;43.47;;;18.00;99.90;;;;;;5124287;27;20131;-59
2023/05/08 18:11:21;;;;;;;69.00;43.15;;;17.90;99.90;;;;;;5128886;27;20039;-59
2023/05/08 18:13:47;;;;;;;71.55;46.45;;;17.80;99.90;;;;;;5121397;27;20035;-60
2023/05/08 18:16:14;;;;;;;63.70;43.20;;;17.70;99.90;;;;;;5117728;27;20087;-59
2023/05/08 18:18:40;;;;;;;65.40;41.78;;;17.60;99.90;;;;;;5121551;27;20123;-58
2023/05/08 18:21:06;;;;;;;69.22;44.63;;;17.60;99.90;;;;;;5121537;27;20113;-59
2023/05/08 18:23:32;;;;;;;63.00;41.40;;;17.50;99.90;;;;;;5124829;27;20043;-59
2023/05/08 18:25:58;;;;;;;70.85;44.25;;;17.50;99.90;;;;;;5101338;27;20476;-60
2023/05/08 18:28:24;;;;;;;64.15;42.67;;;17.40;99.90;;;;;;5125439;27;20035;-60
2023/05/08 18:30:49;;;;;;;71.20;43.35;;;17.30;99.90;;;;;;5127525;27;20130;-59
2023/05/08 18:33:18;;;;;;;63.97;40.67;;;17.20;99.90;;;;;;5123620;27;20061;-59
2023/05/08 18:35:44;;;;;;;69.65;42.45;;;17.10;99.90;;;;;;5109336;27;20134;-59
2023/05/08 18:38:10;;;;;;;69.30;43.30;;;17.00;99.90;;;;;;5123272;27;20126;-59
2023/05/08 18:40:38;;;;;;;71.57;41.90;;;17.00;99.90;;;;;;5102383;27;20036;-59
2023/05/08 18:43:04;;;;;;;78.22;44.53;;;17.00;99.90;;;;;;5124429;27;20042;-59
2023/05/08 18:45:30;;;;;;;66.60;41.90;;;17.00;99.90;;;;;;5125532;27;20039;-60
2023/05/08 18:47:56;;;;;;;64.45;38.10;;;17.00;99.90;;;;;;5123230;27;20062;-59
2023/05/08 18:50:25;;;;;;;67.30;40.83;;;16.90;99.90;;;;;;5126881;27;20047;-58
2023/05/08 18:52:54;;;;;;;65.80;38.60;;;16.80;99.90;;;;;;5123987;27;20034;-59
2023/05/08 18:55:20;;;;;;;74.03;41.78;;;16.80;99.90;;;;;;5126956;27;20028;-59
2023/05/08 18:57:46;;;;;;;74.82;42.15;;;16.70;99.90;;;;;;5103009;27;20050;-59
2023/05/08 19:00:15;;;;;;;68.55;39.53;;;16.70;99.90;;;;;;5124641;27;20420;-60
2023/05/08 19:02:40;;;;;;;70.30;42.03;;;16.60;99.90;;;;;;5125322;27;20035;-60
2023/05/08 19:05:07;;;;;;;66.28;40.47;;;16.50;99.90;;;;;;5122668;27;20071;-60
2023/05/08 19:07:33;;;;;;;66.05;37.70;;;16.40;99.90;;;;;;5123351;27;20035;-60
2023/05/08 19:09:58;;;;;;;66.30;39.50;;;16.40;99.90;;;;;;5126509;27;20482;-59
2023/05/08 19:12:24;;;;;;;73.38;40.17;;;16.40;99.90;;;;;;5122441;27;20035;-59
2023/05/08 19:14:51;;;;;;;69.40;39.80;;;16.40;99.90;;;;;;5108108;27;20035;-59
2023/05/08 19:17:17;;;;;;;63.85;36.72;;;16.40;99.90;;;;;;5124585;27;20035;-59
2023/05/08 19:19:43;;;;;;;70.80;41.63;;;16.40;99.90;;;;;;5119428;27;20082;-60
2023/05/08 19:22:12;;;;;;;83.80;46.13;;;16.50;99.90;;;;;;5107945;27;20039;-59
2023/05/08 19:24:38;;;;;;;75.68;42.83;;;16.40;99.90;;;;;;5107512;27;20723;-60
2023/05/08 19:27:05;;;;;;;76.07;42.88;;;16.30;99.90;;;;;;5108634;27;20039;-59
2023/05/08 19:29:31;;;;;;;78.43;43.53;;;16.30;99.90;;;;;;5126901;27;20122;-59
2023/05/08 19:31:59;;;;;;;79.15;43.20;;;16.30;99.90;;;;;;5125183;27;20077;-59
2023/05/08 19:34:25;;;;;;;71.40;40.22;;;16.30;99.90;;;;;;5123645;27;20031;-60
2023/05/08 19:36:51;;;;;;;74.03;42.33;;;16.40;99.90;;;;;;5128440;27;20034;-59
2023/05/08 19:39:20;;;;;;;71.18;40.17;;;16.30;99.90;;;;;;5122130;27;20031;-59
2023/05/08 19:41:45;;;;;;;84.30;44.20;;;16.30;99.90;;;;;;5123388;27;20087;-58
2023/05/08 19:44:11;;;;;;;87.47;46.88;;;16.30;99.90;;;;;;5123511;27;20099;-59
2023/05/08 19:46:37;;;;;;;85.97;45.85;;;16.20;99.90;;;;;;5118120;27;20032;-59
2023/05/08 19:49:02;;;;;;;74.32;41.00;;;16.20;99.90;;;;;;5126040;27;20142;-59
2023/05/08 19:51:28;;;;;;;68.35;38.60;;;16.30;99.90;;;;;;5121650;27;20047;-59
2023/05/08 19:53:57;;;;;;;72.30;41.70;;;16.30;99.90;;;;;;5125485;27;20027;-59
2023/05/08 19:56:23;;;;;;;71.65;41.33;;;16.30;99.90;;;;;;5127701;27;20050;-59
2023/05/08 19:58:48;;;;;;;83.63;44.65;;;16.30;99.90;;;;;;5126619;27;20120;-60
2023/05/08 20:01:14;;;;;;;83.03;45.53;;;16.40;99.90;;;;;;5123921;28;20397;-60
2023/05/08 20:03:40;;;;;;;73.38;41.72;;;16.40;99.90;;;;;;5126500;28;20031;-60
2023/05/08 20:06:08;;;;;;;72.63;41.28;;;16.40;99.90;;;;;;5119904;28;20039;-59
2023/05/08 20:08:34;;;;;;;75.78;43.97;;;16.40;99.90;;;;;;5117998;28;20051;-59
2023/05/08 20:11:02;;;;;;;73.88;42.58;;;16.40;99.90;;;;;;5121678;28;20032;-59
2023/05/08 20:13:31;;;;;;;74.78;41.13;;;16.40;99.90;;;;;;5113832;27;20070;-59
2023/05/08 20:15:57;;;;;;;85.70;48.08;;;16.40;99.90;;;;;;5119729;27;20246;-60
2023/05/08 20:18:23;;;;;;;94.60;50.22;;;16.40;99.90;;;;;;5120940;27;20039;-59
2023/05/08 20:20:49;;;;;;;82.47;44.35;;;16.40;99.90;;;;;;5121335;28;20078;-60
2023/05/08 20:23:15;;;;;;;77.18;44.05;;;16.40;99.90;;;;;;5087529;28;20082;-59